sensor_id;sensor_type;location;lat;lon;timestamp;temperature;humidity
58409;DHT22;44202;52.730;6.470;2022-07-29T00:02:09;15.30;99.90
58409;DHT22;44202;52.730;6.470;2022-07-29T00:04:35;15.20;99.90
58409;DHT22;44202;52.730;6.470;2022-07-29T00:07:02;15.20;99.90
58409;DHT22;44202;52.730;6.470;2022-07-29T00:09:28;15.10;99.90
58409;DHT22;44202;52.730;6.470;2022-07-29T00:11:55;15.20;99.90
58409;DHT22;44202;52.730;6.470;2022-07-29T00:14:22;15.00;99.90
58409;DHT22;44202;52.730;6.470;2022-07-29T00:16:47;15.10;99.90
58409;DHT22;44202;52.730;6.470;2022-07-29T00:19:13;15.10;99.90
58409;DHT22;44202;52.730;6.470;2022-07-29T00:21:38;15.00;99.90
58409;DHT22;44202;52.730;6.470;2022-07-29T00:24:04;15.10;99.90
58409;DHT22;44202;52.730;6.470;2022-07-29T00:26:30;15.00;99.90
58409;DHT22;44202;52.730;6.470;2022-07-29T00:29:02;15.00;99.90
58409;DHT22;44202;52.730;6.470;2022-07-29T00:31:28;15.00;99.90
58409;DHT22;44202;52.730;6.470;2022-07-29T00:33:54;15.00;99.90
58409;DHT22;44202;52.730;6.470;2022-07-29T00:36:20;15.10;99.90
58409;DHT22;44202;52.730;6.470;2022-07-29T00:38:50;15.00;99.90
58409;DHT22;44202;52.730;6.470;2022-07-29T00:41:17;15.00;99.90
58409;DHT22;44202;52.730;6.470;2022-07-29T00:43:43;15.00;99.90
58409;DHT22;44202;52.730;6.470;2022-07-29T00:46:08;15.00;99.90
58409;DHT22;44202;52.730;6.470;2022-07-29T00:48:34;15.00;99.90
58409;DHT22;44202;52.730;6.470;2022-07-29T00:51:02;15.00;99.90
58409;DHT22;44202;52.730;6.470;2022-07-29T00:53:29;15.00;99.90
58409;DHT22;44202;52.730;6.470;2022-07-29T00:55:55;15.00;99.90
58409;DHT22;44202;52.730;6.470;2022-07-29T00:58:22;15.00;99.90
58409;DHT22;44202;52.730;6.470;2022-07-29T01:00:48;14.90;99.90
58409;DHT22;44202;52.730;6.470;2022-07-29T01:03:14;14.90;99.90
58409;DHT22;44202;52.730;6.470;2022-07-29T01:05:41;14.90;99.90
58409;DHT22;44202;52.730;6.470;2022-07-29T01:08:08;14.90;99.90
58409;DHT22;44202;52.730;6.470;2022-07-29T01:10:37;14.80;99.90
58409;DHT22;44202;52.730;6.470;2022-07-29T01:13:03;14.90;99.90
58409;DHT22;44202;52.730;6.470;2022-07-29T01:15:29;14.90;99.90
58409;DHT22;44202;52.730;6.470;2022-07-29T01:18:05;14.90;99.90
58409;DHT22;44202;52.730;6.470;2022-07-29T01:23:27;15.00;99.90
58409;DHT22;44202;52.730;6.470;2022-07-29T01:26:10;15.00;99.90
58409;DHT22;44202;52.730;6.470;2022-07-29T01:32:04;15.00;99.90
58409;DHT22;44202;52.730;6.470;2022-07-29T01:34:39;15.00;99.90
58409;DHT22;44202;52.730;6.470;2022-07-29T01:37:22;14.90;99.90
58409;DHT22;44202;52.730;6.470;2022-07-29T01:39:51;14.90;99.90
58409;DHT22;44202;52.730;6.470;2022-07-29T01:45:06;14.90;99.90
58409;DHT22;44202;52.730;6.470;2022-07-29T01:47:42;14.90;99.90
58409;DHT22;44202;52.730;6.470;2022-07-29T01:50:12;14.90;99.90
58409;DHT22;44202;52.730;6.470;2022-07-29T01:52:47;15.00;99.90
58409;DHT22;44202;52.730;6.470;2022-07-29T01:55:15;15.00;99.90
58409;DHT22;44202;52.730;6.470;2022-07-29T01:57:44;15.00;99.90
58409;DHT22;44202;52.730;6.470;2022-07-29T02:00:11;15.00;99.90
58409;DHT22;44202;52.730;6.470;2022-07-29T02:02:42;14.90;99.90
58409;DHT22;44202;52.730;6.470;2022-07-29T02:05:10;14.80;99.90
58409;DHT22;44202;52.730;6.470;2022-07-29T02:07:38;14.80;99.90
58409;DHT22;44202;52.730;6.470;2022-07-29T02:10:05;14.80;99.90
58409;DHT22;44202;52.730;6.470;2022-07-29T02:12:32;14.80;99.90
58409;DHT22;44202;52.730;6.470;2022-07-29T02:15:00;14.90;99.90
58409;DHT22;44202;52.730;6.470;2022-07-29T02:17:31;14.80;99.90
58409;DHT22;44202;52.730;6.470;2022-07-29T02:20:01;14.80;99.90
58409;DHT22;44202;52.730;6.470;2022-07-29T02:22:30;14.80;99.90
58409;DHT22;44202;52.730;6.470;2022-07-29T02:24:57;14.70;99.90
58409;DHT22;44202;52.730;6.470;2022-07-29T02:27:25;14.80;99.90
58409;DHT22;44202;52.730;6.470;2022-07-29T02:29:53;14.80;99.90
58409;DHT22;44202;52.730;6.470;2022-07-29T02:32:21;14.80;99.90
58409;DHT22;44202;52.730;6.470;2022-07-29T02:34:49;14.80;99.90
58409;DHT22;44202;52.730;6.470;2022-07-29T02:37:16;14.80;99.90
58409;DHT22;44202;52.730;6.470;2022-07-29T02:39:44;14.70;99.90
58409;DHT22;44202;52.730;6.470;2022-07-29T02:42:12;14.70;99.90
58409;DHT22;44202;52.730;6.470;2022-07-29T02:44:38;14.80;99.90
58409;DHT22;44202;52.730;6.470;2022-07-29T02:47:13;14.80;99.90
58409;DHT22;44202;52.730;6.470;2022-07-29T02:54:58;14.70;99.90
58409;DHT22;44202;52.730;6.470;2022-07-29T03:00:04;14.70;99.90
58409;DHT22;44202;52.730;6.470;2022-07-29T03:02:34;14.60;99.90
58409;DHT22;44202;52.730;6.470;2022-07-29T03:05:02;14.50;99.90
58409;DHT22;44202;52.730;6.470;2022-07-29T03:07:28;14.50;99.90
58409;DHT22;44202;52.730;6.470;2022-07-29T03:09:54;14.40;99.90
58409;DHT22;44202;52.730;6.470;2022-07-29T03:12:21;14.40;99.90
58409;DHT22;44202;52.730;6.470;2022-07-29T03:14:48;14.40;99.90
58409;DHT22;44202;52.730;6.470;2022-07-29T03:17:14;14.40;99.90
58409;DHT22;44202;52.730;6.470;2022-07-29T03:19:40;14.30;99.90
58409;DHT22;44202;52.730;6.470;2022-07-29T03:22:06;14.30;99.90
58409;DHT22;44202;52.730;6.470;2022-07-29T03:24:34;14.30;99.90
58409;DHT22;44202;52.730;6.470;2022-07-29T03:27:01;14.30;99.90
58409;DHT22;44202;52.730;6.470;2022-07-29T03:29:27;14.20;99.90
58409;DHT22;44202;52.730;6.470;2022-07-29T03:31:53;14.20;99.90
58409;DHT22;44202;52.730;6.470;2022-07-29T03:34:19;14.40;99.90
58409;DHT22;44202;52.730;6.470;2022-07-29T03:36:46;14.10;99.90
58409;DHT22;44202;52.730;6.470;2022-07-29T03:39:15;14.10;99.90
58409;DHT22;44202;52.730;6.470;2022-07-29T03:41:42;14.20;99.90
58409;DHT22;44202;52.730;6.470;2022-07-29T03:44:09;14.20;99.90
58409;DHT22;44202;52.730;6.470;2022-07-29T03:46:37;14.20;99.90
58409;DHT22;44202;52.730;6.470;2022-07-29T03:49:05;14.10;99.90
58409;DHT22;44202;52.730;6.470;2022-07-29T03:51:33;14.10;99.90
58409;DHT22;44202;52.730;6.470;2022-07-29T03:54:04;14.10;99.90
58409;DHT22;44202;52.730;6.470;2022-07-29T03:56:32;14.10;99.90
58409;DHT22;44202;52.730;6.470;2022-07-29T03:59:02;14.10;99.90
58409;DHT22;44202;52.730;6.470;2022-07-29T04:01:28;14.00;99.90
58409;DHT22;44202;52.730;6.470;2022-07-29T04:03:55;14.10;99.90
58409;DHT22;44202;52.730;6.470;2022-07-29T04:06:20;14.00;99.90
58409;DHT22;44202;52.730;6.470;2022-07-29T04:08:46;14.10;99.90
58409;DHT22;44202;52.730;6.470;2022-07-29T04:11:12;14.10;99.90
58409;DHT22;44202;52.730;6.470;2022-07-29T04:13:38;14.10;99.90
58409;DHT22;44202;52.730;6.470;2022-07-29T04:16:04;14.00;99.90
58409;DHT22;44202;52.730;6.470;2022-07-29T04:18:29;14.10;99.90
58409;DHT22;44202;52.730;6.470;2022-07-29T04:20:55;14.00;99.90
58409;DHT22;44202;52.730;6.470;2022-07-29T04:23:21;14.10;99.90
58409;DHT22;44202;52.730;6.470;2022-07-29T04:25:47;14.00;99.90
58409;DHT22;44202;52.730;6.470;2022-07-29T04:28:13;14.10;99.90
58409;DHT22;44202;52.730;6.470;2022-07-29T04:30:38;14.10;99.90
58409;DHT22;44202;52.730;6.470;2022-07-29T04:33:06;14.10;99.90
58409;DHT22;44202;52.730;6.470;2022-07-29T04:35:36;14.00;99.90
58409;DHT22;44202;52.730;6.470;2022-07-29T04:38:03;14.00;99.90
58409;DHT22;44202;52.730;6.470;2022-07-29T04:40:29;14.00;99.90
58409;DHT22;44202;52.730;6.470;2022-07-29T04:42:55;14.00;99.90
58409;DHT22;44202;52.730;6.470;2022-07-29T04:45:20;14.00;99.90
58409;DHT22;44202;52.730;6.470;2022-07-29T04:47:46;14.00;99.90
58409;DHT22;44202;52.730;6.470;2022-07-29T04:50:12;14.10;99.90
58409;DHT22;44202;52.730;6.470;2022-07-29T04:52:37;14.10;99.90
58409;DHT22;44202;52.730;6.470;2022-07-29T04:55:05;14.10;99.90
58409;DHT22;44202;52.730;6.470;2022-07-29T04:57:30;14.10;99.90
58409;DHT22;44202;52.730;6.470;2022-07-29T04:59:56;14.10;99.90
58409;DHT22;44202;52.730;6.470;2022-07-29T05:02:22;14.10;99.90
58409;DHT22;44202;52.730;6.470;2022-07-29T05:04:48;14.20;99.90
58409;DHT22;44202;52.730;6.470;2022-07-29T05:07:14;14.20;99.90
58409;DHT22;44202;52.730;6.470;2022-07-29T05:09:40;14.20;99.90
58409;DHT22;44202;52.730;6.470;2022-07-29T05:12:06;14.20;99.90
58409;DHT22;44202;52.730;6.470;2022-07-29T05:14:32;14.20;99.90
58409;DHT22;44202;52.730;6.470;2022-07-29T05:16:57;14.20;99.90
58409;DHT22;44202;52.730;6.470;2022-07-29T05:19:23;14.30;99.90
58409;DHT22;44202;52.730;6.470;2022-07-29T05:21:49;14.30;99.90
58409;DHT22;44202;52.730;6.470;2022-07-29T05:24:15;14.40;99.90
58409;DHT22;44202;52.730;6.470;2022-07-29T05:26:41;14.50;99.90
58409;DHT22;44202;52.730;6.470;2022-07-29T05:29:07;14.50;99.90
58409;DHT22;44202;52.730;6.470;2022-07-29T05:31:35;14.60;99.90
58409;DHT22;44202;52.730;6.470;2022-07-29T05:34:01;14.80;99.90
58409;DHT22;44202;52.730;6.470;2022-07-29T05:36:27;14.80;99.90
58409;DHT22;44202;52.730;6.470;2022-07-29T05:38:52;14.90;99.90
58409;DHT22;44202;52.730;6.470;2022-07-29T05:41:19;14.90;99.90
58409;DHT22;44202;52.730;6.470;2022-07-29T05:43:44;15.00;99.90
58409;DHT22;44202;52.730;6.470;2022-07-29T05:46:10;15.20;99.90
58409;DHT22;44202;52.730;6.470;2022-07-29T05:48:36;15.20;99.90
58409;DHT22;44202;52.730;6.470;2022-07-29T05:51:01;15.30;99.90
58409;DHT22;44202;52.730;6.470;2022-07-29T05:53:27;15.30;99.90
58409;DHT22;44202;52.730;6.470;2022-07-29T05:55:53;15.60;99.90
58409;DHT22;44202;52.730;6.470;2022-07-29T05:58:19;15.40;99.90
58409;DHT22;44202;52.730;6.470;2022-07-29T06:00:45;15.50;99.90
58409;DHT22;44202;52.730;6.470;2022-07-29T06:03:11;15.60;99.90
58409;DHT22;44202;52.730;6.470;2022-07-29T06:05:36;15.70;99.90
58409;DHT22;44202;52.730;6.470;2022-07-29T06:08:02;15.70;99.90
58409;DHT22;44202;52.730;6.470;2022-07-29T06:10:29;15.80;99.90
58409;DHT22;44202;52.730;6.470;2022-07-29T06:12:55;15.90;99.90
58409;DHT22;44202;52.730;6.470;2022-07-29T06:15:20;15.90;99.90
58409;DHT22;44202;52.730;6.470;2022-07-29T06:17:46;15.90;99.90
58409;DHT22;44202;52.730;6.470;2022-07-29T06:20:13;15.90;99.90
58409;DHT22;44202;52.730;6.470;2022-07-29T06:22:38;15.80;99.90
58409;DHT22;44202;52.730;6.470;2022-07-29T06:25:05;15.80;99.90
58409;DHT22;44202;52.730;6.470;2022-07-29T06:27:30;15.80;99.90
58409;DHT22;44202;52.730;6.470;2022-07-29T06:29:56;15.80;99.90
58409;DHT22;44202;52.730;6.470;2022-07-29T06:32:22;15.70;99.90
58409;DHT22;44202;52.730;6.470;2022-07-29T06:34:47;15.80;99.90
58409;DHT22;44202;52.730;6.470;2022-07-29T06:37:13;15.70;99.90
58409;DHT22;44202;52.730;6.470;2022-07-29T06:39:39;15.80;99.90
58409;DHT22;44202;52.730;6.470;2022-07-29T06:42:05;15.70;99.90
58409;DHT22;44202;52.730;6.470;2022-07-29T06:44:31;15.70;99.90
58409;DHT22;44202;52.730;6.470;2022-07-29T06:47:00;15.70;99.90
58409;DHT22;44202;52.730;6.470;2022-07-29T06:49:26;15.70;99.90
58409;DHT22;44202;52.730;6.470;2022-07-29T06:51:53;15.70;99.90
58409;DHT22;44202;52.730;6.470;2022-07-29T06:54:19;15.80;99.90
58409;DHT22;44202;52.730;6.470;2022-07-29T06:56:44;15.80;99.90
58409;DHT22;44202;52.730;6.470;2022-07-29T06:59:11;15.80;99.90
58409;DHT22;44202;52.730;6.470;2022-07-29T07:01:39;15.80;99.90
58409;DHT22;44202;52.730;6.470;2022-07-29T07:04:05;15.90;99.90
58409;DHT22;44202;52.730;6.470;2022-07-29T07:06:30;15.80;99.90
58409;DHT22;44202;52.730;6.470;2022-07-29T07:08:56;15.90;99.90
58409;DHT22;44202;52.730;6.470;2022-07-29T07:11:22;15.90;99.90
58409;DHT22;44202;52.730;6.470;2022-07-29T07:13:47;16.00;99.90
58409;DHT22;44202;52.730;6.470;2022-07-29T07:16:13;16.10;99.90
58409;DHT22;44202;52.730;6.470;2022-07-29T07:18:39;16.30;99.90
58409;DHT22;44202;52.730;6.470;2022-07-29T07:21:04;16.40;99.90
58409;DHT22;44202;52.730;6.470;2022-07-29T07:23:31;16.60;99.90
58409;DHT22;44202;52.730;6.470;2022-07-29T07:25:56;16.70;99.90
58409;DHT22;44202;52.730;6.470;2022-07-29T07:28:22;16.70;99.90
58409;DHT22;44202;52.730;6.470;2022-07-29T07:30:48;16.90;99.90
58409;DHT22;44202;52.730;6.470;2022-07-29T07:33:14;17.00;99.90
58409;DHT22;44202;52.730;6.470;2022-07-29T07:35:40;17.10;99.90
58409;DHT22;44202;52.730;6.470;2022-07-29T07:38:06;17.30;99.90
58409;DHT22;44202;52.730;6.470;2022-07-29T07:40:32;17.20;99.90
58409;DHT22;44202;52.730;6.470;2022-07-29T07:42:58;17.40;99.90
58409;DHT22;44202;52.730;6.470;2022-07-29T07:45:24;17.40;99.90
58409;DHT22;44202;52.730;6.470;2022-07-29T07:47:50;17.40;99.90
58409;DHT22;44202;52.730;6.470;2022-07-29T07:50:15;17.30;99.90
58409;DHT22;44202;52.730;6.470;2022-07-29T07:52:47;17.40;99.90
58409;DHT22;44202;52.730;6.470;2022-07-29T07:55:14;17.50;99.90
58409;DHT22;44202;52.730;6.470;2022-07-29T07:57:39;17.50;99.90
58409;DHT22;44202;52.730;6.470;2022-07-29T08:00:05;17.50;99.90
58409;DHT22;44202;52.730;6.470;2022-07-29T08:02:31;17.50;99.90
58409;DHT22;44202;52.730;6.470;2022-07-29T08:04:57;17.60;99.90
58409;DHT22;44202;52.730;6.470;2022-07-29T08:07:23;17.60;99.90
58409;DHT22;44202;52.730;6.470;2022-07-29T08:09:48;17.60;99.90
58409;DHT22;44202;52.730;6.470;2022-07-29T08:12:14;17.50;99.90
58409;DHT22;44202;52.730;6.470;2022-07-29T08:14:40;17.50;99.90
58409;DHT22;44202;52.730;6.470;2022-07-29T08:17:05;17.40;99.90
58409;DHT22;44202;52.730;6.470;2022-07-29T08:19:31;17.30;99.90
58409;DHT22;44202;52.730;6.470;2022-07-29T08:21:57;17.20;99.90
58409;DHT22;44202;52.730;6.470;2022-07-29T08:24:22;17.10;99.90
58409;DHT22;44202;52.730;6.470;2022-07-29T08:27:07;17.00;99.90
58409;DHT22;44202;52.730;6.470;2022-07-29T08:29:32;16.90;99.90
58409;DHT22;44202;52.730;6.470;2022-07-29T08:31:58;16.70;99.90
58409;DHT22;44202;52.730;6.470;2022-07-29T08:34:24;16.70;99.90
58409;DHT22;44202;52.730;6.470;2022-07-29T08:36:49;16.60;99.90
58409;DHT22;44202;52.730;6.470;2022-07-29T08:39:15;16.50;99.90
58409;DHT22;44202;52.730;6.470;2022-07-29T08:41:40;16.40;99.90
58409;DHT22;44202;52.730;6.470;2022-07-29T08:44:06;16.30;99.90
58409;DHT22;44202;52.730;6.470;2022-07-29T08:46:32;16.40;99.90
58409;DHT22;44202;52.730;6.470;2022-07-29T08:48:58;16.40;99.90
58409;DHT22;44202;52.730;6.470;2022-07-29T08:51:25;16.50;99.90
58409;DHT22;44202;52.730;6.470;2022-07-29T08:53:53;16.50;99.90
58409;DHT22;44202;52.730;6.470;2022-07-29T08:56:21;16.70;99.90
58409;DHT22;44202;52.730;6.470;2022-07-29T08:58:47;16.80;99.90
58409;DHT22;44202;52.730;6.470;2022-07-29T09:01:21;16.90;99.90
58409;DHT22;44202;52.730;6.470;2022-07-29T09:03:47;17.00;99.90
58409;DHT22;44202;52.730;6.470;2022-07-29T09:06:15;17.10;99.90
58409;DHT22;44202;52.730;6.470;2022-07-29T09:08:42;17.40;99.90
58409;DHT22;44202;52.730;6.470;2022-07-29T09:11:08;17.50;99.90
58409;DHT22;44202;52.730;6.470;2022-07-29T09:13:34;17.50;99.90
58409;DHT22;44202;52.730;6.470;2022-07-29T09:16:00;17.70;99.90
58409;DHT22;44202;52.730;6.470;2022-07-29T09:18:42;17.80;99.90
58409;DHT22;44202;52.730;6.470;2022-07-29T09:21:10;17.90;99.90
58409;DHT22;44202;52.730;6.470;2022-07-29T09:24:12;18.10;99.90
58409;DHT22;44202;52.730;6.470;2022-07-29T09:26:43;18.20;99.90
58409;DHT22;44202;52.730;6.470;2022-07-29T09:29:19;18.30;99.90
58409;DHT22;44202;52.730;6.470;2022-07-29T09:31:47;18.40;99.90
58409;DHT22;44202;52.730;6.470;2022-07-29T09:34:25;18.50;99.90
58409;DHT22;44202;52.730;6.470;2022-07-29T09:36:52;18.60;99.90
58409;DHT22;44202;52.730;6.470;2022-07-29T09:39:37;18.70;99.90
58409;DHT22;44202;52.730;6.470;2022-07-29T09:42:10;18.80;99.90
58409;DHT22;44202;52.730;6.470;2022-07-29T09:44:47;18.80;99.90
58409;DHT22;44202;52.730;6.470;2022-07-29T09:47:17;18.90;99.90
58409;DHT22;44202;52.730;6.470;2022-07-29T09:49:59;19.00;99.90
58409;DHT22;44202;52.730;6.470;2022-07-29T09:52:29;19.10;99.90
58409;DHT22;44202;52.730;6.470;2022-07-29T09:55:06;19.20;99.90
58409;DHT22;44202;52.730;6.470;2022-07-29T09:57:31;19.30;99.90
58409;DHT22;44202;52.730;6.470;2022-07-29T09:59:59;19.30;99.90
58409;DHT22;44202;52.730;6.470;2022-07-29T10:02:30;19.40;99.90
58409;DHT22;44202;52.730;6.470;2022-07-29T10:04:56;19.50;99.90
58409;DHT22;44202;52.730;6.470;2022-07-29T10:07:22;19.70;99.90
58409;DHT22;44202;52.730;6.470;2022-07-29T10:09:55;19.80;99.90
58409;DHT22;44202;52.730;6.470;2022-07-29T10:12:22;20.00;99.90
58409;DHT22;44202;52.730;6.470;2022-07-29T10:14:48;20.20;99.90
58409;DHT22;44202;52.730;6.470;2022-07-29T10:17:16;20.40;99.90
58409;DHT22;44202;52.730;6.470;2022-07-29T10:19:42;20.80;99.90
58409;DHT22;44202;52.730;6.470;2022-07-29T10:22:09;21.10;99.90
58409;DHT22;44202;52.730;6.470;2022-07-29T10:24:38;21.30;99.90
58409;DHT22;44202;52.730;6.470;2022-07-29T10:27:06;21.70;99.90
58409;DHT22;44202;52.730;6.470;2022-07-29T10:29:32;23.00;99.90
58409;DHT22;44202;52.730;6.470;2022-07-29T10:43:34;24.40;94.70
58409;DHT22;44202;52.730;6.470;2022-07-29T10:46:02;24.40;85.70
58409;DHT22;44202;52.730;6.470;2022-07-29T10:48:28;24.10;84.60
58409;DHT22;44202;52.730;6.470;2022-07-29T10:50:55;24.00;83.60
58409;DHT22;44202;52.730;6.470;2022-07-29T10:53:50;24.00;86.20
58409;DHT22;44202;52.730;6.470;2022-07-29T10:56:30;24.30;92.30
58409;DHT22;44202;52.730;6.470;2022-07-29T11:01:41;24.90;79.70
58409;DHT22;44202;52.730;6.470;2022-07-29T11:04:07;24.90;80.60
58409;DHT22;44202;52.730;6.470;2022-07-29T11:09:23;24.80;79.40
58409;DHT22;44202;52.730;6.470;2022-07-29T11:11:49;24.60;75.40
58409;DHT22;44202;52.730;6.470;2022-07-29T11:14:15;24.40;83.10
58409;DHT22;44202;52.730;6.470;2022-07-29T11:17:03;24.30;83.60
58409;DHT22;44202;52.730;6.470;2022-07-29T11:19:30;24.10;87.10
58409;DHT22;44202;52.730;6.470;2022-07-29T11:21:56;23.90;84.90
58409;DHT22;44202;52.730;6.470;2022-07-29T11:24:29;23.80;90.60
58409;DHT22;44202;52.730;6.470;2022-07-29T11:27:07;23.70;92.70
58409;DHT22;44202;52.730;6.470;2022-07-29T11:29:36;23.70;91.60
58409;DHT22;44202;52.730;6.470;2022-07-29T11:32:11;23.70;97.40
58409;DHT22;44202;52.730;6.470;2022-07-29T11:34:38;23.80;97.50
58409;DHT22;44202;52.730;6.470;2022-07-29T11:39:36;23.90;96.60
58409;DHT22;44202;52.730;6.470;2022-07-29T11:48:01;25.00;86.60
58409;DHT22;44202;52.730;6.470;2022-07-29T11:50:34;25.60;83.60
58409;DHT22;44202;52.730;6.470;2022-07-29T11:53:02;26.20;72.60
58409;DHT22;44202;52.730;6.470;2022-07-29T11:55:28;26.10;68.90
58409;DHT22;44202;52.730;6.470;2022-07-29T11:58:00;25.70;70.90
58409;DHT22;44202;52.730;6.470;2022-07-29T12:00:27;25.60;72.40
58409;DHT22;44202;52.730;6.470;2022-07-29T12:02:53;25.70;71.90
58409;DHT22;44202;52.730;6.470;2022-07-29T12:05:20;25.70;68.90
58409;DHT22;44202;52.730;6.470;2022-07-29T12:07:47;25.80;71.10
58409;DHT22;44202;52.730;6.470;2022-07-29T12:10:13;26.00;70.10
58409;DHT22;44202;52.730;6.470;2022-07-29T12:12:39;26.00;71.50
58409;DHT22;44202;52.730;6.470;2022-07-29T12:15:18;25.90;69.80
58409;DHT22;44202;52.730;6.470;2022-07-29T12:17:46;25.90;72.50
58409;DHT22;44202;52.730;6.470;2022-07-29T12:20:12;25.90;70.30
58409;DHT22;44202;52.730;6.470;2022-07-29T12:22:41;25.80;70.50
58409;DHT22;44202;52.730;6.470;2022-07-29T12:25:14;25.70;69.30
58409;DHT22;44202;52.730;6.470;2022-07-29T12:27:42;25.90;67.60
58409;DHT22;44202;52.730;6.470;2022-07-29T12:30:48;25.90;67.00
58409;DHT22;44202;52.730;6.470;2022-07-29T12:33:24;26.30;68.70
58409;DHT22;44202;52.730;6.470;2022-07-29T12:36:00;26.60;66.20
58409;DHT22;44202;52.730;6.470;2022-07-29T12:38:27;26.80;65.60
58409;DHT22;44202;52.730;6.470;2022-07-29T12:40:54;26.80;65.80
58409;DHT22;44202;52.730;6.470;2022-07-29T12:43:23;26.60;66.60
58409;DHT22;44202;52.730;6.470;2022-07-29T12:45:52;26.50;69.40
58409;DHT22;44202;52.730;6.470;2022-07-29T12:48:34;26.50;71.20
58409;DHT22;44202;52.730;6.470;2022-07-29T12:51:02;26.90;71.00
58409;DHT22;44202;52.730;6.470;2022-07-29T12:53:28;27.20;68.30
58409;DHT22;44202;52.730;6.470;2022-07-29T12:55:56;27.30;68.50
58409;DHT22;44202;52.730;6.470;2022-07-29T12:58:28;27.40;65.00
58409;DHT22;44202;52.730;6.470;2022-07-29T13:01:05;27.30;63.70
58409;DHT22;44202;52.730;6.470;2022-07-29T13:03:57;27.10;60.70
58409;DHT22;44202;52.730;6.470;2022-07-29T13:06:39;26.80;60.50
58409;DHT22;44202;52.730;6.470;2022-07-29T13:09:19;26.40;60.20
58409;DHT22;44202;52.730;6.470;2022-07-29T13:11:49;26.20;63.00
58409;DHT22;44202;52.730;6.470;2022-07-29T13:14:33;26.00;62.70
58409;DHT22;44202;52.730;6.470;2022-07-29T13:17:05;25.90;63.30
58409;DHT22;44202;52.730;6.470;2022-07-29T13:20:11;25.80;65.10
58409;DHT22;44202;52.730;6.470;2022-07-29T13:22:41;25.80;66.00
58409;DHT22;44202;52.730;6.470;2022-07-29T13:25:45;26.00;65.70
58409;DHT22;44202;52.730;6.470;2022-07-29T13:28:11;26.20;64.70
58409;DHT22;44202;52.730;6.470;2022-07-29T13:31:03;26.30;64.10
58409;DHT22;44202;52.730;6.470;2022-07-29T13:33:30;26.40;64.00
58409;DHT22;44202;52.730;6.470;2022-07-29T13:36:16;26.60;64.20
58409;DHT22;44202;52.730;6.470;2022-07-29T13:38:41;26.70;63.80
58409;DHT22;44202;52.730;6.470;2022-07-29T13:41:30;26.80;64.80
58409;DHT22;44202;52.730;6.470;2022-07-29T13:43:56;27.00;59.80
58409;DHT22;44202;52.730;6.470;2022-07-29T13:46:21;27.00;61.80
58409;DHT22;44202;52.730;6.470;2022-07-29T13:48:47;27.20;62.00
58409;DHT22;44202;52.730;6.470;2022-07-29T13:51:13;27.40;62.70
58409;DHT22;44202;52.730;6.470;2022-07-29T13:53:38;27.60;58.80
58409;DHT22;44202;52.730;6.470;2022-07-29T13:56:04;27.70;57.80
58409;DHT22;44202;52.730;6.470;2022-07-29T14:01:55;27.90;55.80
58409;DHT22;44202;52.730;6.470;2022-07-29T14:04:21;27.90;56.20
58409;DHT22;44202;52.730;6.470;2022-07-29T14:06:52;27.90;54.60
58409;DHT22;44202;52.730;6.470;2022-07-29T14:09:18;27.90;56.70
58409;DHT22;44202;52.730;6.470;2022-07-29T14:11:44;27.80;56.40
58409;DHT22;44202;52.730;6.470;2022-07-29T14:14:11;27.70;56.80
58409;DHT22;44202;52.730;6.470;2022-07-29T14:16:37;27.60;55.90
58409;DHT22;44202;52.730;6.470;2022-07-29T14:19:02;27.40;55.20
58409;DHT22;44202;52.730;6.470;2022-07-29T14:21:28;27.30;55.90
58409;DHT22;44202;52.730;6.470;2022-07-29T14:23:54;27.20;56.60
58409;DHT22;44202;52.730;6.470;2022-07-29T14:26:21;27.10;58.60
58409;DHT22;44202;52.730;6.470;2022-07-29T14:28:47;27.10;58.90
58409;DHT22;44202;52.730;6.470;2022-07-29T14:31:13;27.10;57.70
58409;DHT22;44202;52.730;6.470;2022-07-29T14:33:39;27.10;58.40
58409;DHT22;44202;52.730;6.470;2022-07-29T14:36:07;27.10;58.80
58409;DHT22;44202;52.730;6.470;2022-07-29T14:38:33;27.10;59.90
58409;DHT22;44202;52.730;6.470;2022-07-29T14:40:58;27.20;61.20
58409;DHT22;44202;52.730;6.470;2022-07-29T14:43:24;27.20;59.10
58409;DHT22;44202;52.730;6.470;2022-07-29T14:45:50;27.10;57.80
58409;DHT22;44202;52.730;6.470;2022-07-29T14:48:21;26.90;58.70
58409;DHT22;44202;52.730;6.470;2022-07-29T14:50:47;26.90;60.30
58409;DHT22;44202;52.730;6.470;2022-07-29T14:53:12;27.30;59.80
58409;DHT22;44202;52.730;6.470;2022-07-29T14:55:39;27.80;58.50
58409;DHT22;44202;52.730;6.470;2022-07-29T14:58:06;28.30;57.10
58409;DHT22;44202;52.730;6.470;2022-07-29T15:04:12;29.10;53.10
58409;DHT22;44202;52.730;6.470;2022-07-29T15:06:38;29.20;55.00
58409;DHT22;44202;52.730;6.470;2022-07-29T15:09:04;29.40;54.90
58409;DHT22;44202;52.730;6.470;2022-07-29T15:11:29;29.60;53.80
58409;DHT22;44202;52.730;6.470;2022-07-29T15:13:55;29.60;53.00
58409;DHT22;44202;52.730;6.470;2022-07-29T15:16:21;29.70;52.60
58409;DHT22;44202;52.730;6.470;2022-07-29T15:18:46;30.00;51.70
58409;DHT22;44202;52.730;6.470;2022-07-29T15:21:12;30.20;50.50
58409;DHT22;44202;52.730;6.470;2022-07-29T15:23:38;30.30;49.50
58409;DHT22;44202;52.730;6.470;2022-07-29T15:26:04;30.40;50.80
58409;DHT22;44202;52.730;6.470;2022-07-29T15:28:30;30.50;50.90
58409;DHT22;44202;52.730;6.470;2022-07-29T15:30:56;30.60;49.70
58409;DHT22;44202;52.730;6.470;2022-07-29T15:33:21;30.80;49.60
58409;DHT22;44202;52.730;6.470;2022-07-29T15:35:47;30.90;48.90
58409;DHT22;44202;52.730;6.470;2022-07-29T15:38:12;31.20;49.70
58409;DHT22;44202;52.730;6.470;2022-07-29T15:40:43;31.40;47.70
58409;DHT22;44202;52.730;6.470;2022-07-29T15:43:10;31.70;46.90
58409;DHT22;44202;52.730;6.470;2022-07-29T15:45:41;31.80;46.40
58409;DHT22;44202;52.730;6.470;2022-07-29T15:48:27;31.90;45.20
58409;DHT22;44202;52.730;6.470;2022-07-29T15:51:20;31.90;45.10
58409;DHT22;44202;52.730;6.470;2022-07-29T15:53:45;32.10;44.60
58409;DHT22;44202;52.730;6.470;2022-07-29T15:56:11;32.20;44.90
58409;DHT22;44202;52.730;6.470;2022-07-29T15:58:38;32.30;44.20
58409;DHT22;44202;52.730;6.470;2022-07-29T16:01:04;32.50;44.30
58409;DHT22;44202;52.730;6.470;2022-07-29T16:03:29;32.60;44.10
58409;DHT22;44202;52.730;6.470;2022-07-29T16:05:57;32.70;43.00
58409;DHT22;44202;52.730;6.470;2022-07-29T16:08:23;32.80;42.90
58409;DHT22;44202;52.730;6.470;2022-07-29T16:10:48;32.90;42.80
58409;DHT22;44202;52.730;6.470;2022-07-29T16:13:14;33.10;42.00
58409;DHT22;44202;52.730;6.470;2022-07-29T16:15:40;33.10;41.70
58409;DHT22;44202;52.730;6.470;2022-07-29T16:18:05;33.10;42.10
58409;DHT22;44202;52.730;6.470;2022-07-29T16:20:33;33.10;41.40
58409;DHT22;44202;52.730;6.470;2022-07-29T16:22:59;33.10;42.00
58409;DHT22;44202;52.730;6.470;2022-07-29T16:25:24;33.30;41.10
58409;DHT22;44202;52.730;6.470;2022-07-29T16:27:50;33.40;40.20